Relevés horaires Beauvechain (Belgique)


Relevés horaires à Beauvechain - Dimanche 05 Avr. 2020
Heure UTC1 Température [°C] Vent [km/h] Hum. [%] Pres.4 [hPa] Visi. [Km] Nébu. [octa] Préc.5 [mm] Cond.
2m. Res. Ros. Dir.2 Vit. Moy. Raf.3
23:00 12.5 12.4 0.5 SSE 5.6 -- 9.3 44 1016.5(-0.3/3h) 20 -- -- --
22:00 13.5 13.5 0.7 SSE 5.6 -- 9.3 42 1016.3(-0.3/3h) 20 -- -- --
21:00 14.8 14.8 1.1 SE 5.6 -- 9.3 39 1016.3(0.0/3h) 20 -- -- --
20:00 15.5 15.5 1.9 SE 5.6 -- 9.3 40 1016.6(0.3/3h) 20 -- -- --
19:00 16.6 16.6 2.3 SE 5.6 -- 7.4 38 1016.6(0.1/3h) 20 -- -- --
18:00 18.9 18.9 2.4 SE 5.6 -- 16.7 33 1016.2(-0.7/3h) 20 -- -- --
17:00 20.8 20.8 0.9 SE 5.6 -- 13.0 27 1016.1(-1.3/3h) 20 -- -- --
16:00 21.3 21.3 1.2 SE 9.3 -- 13.0 26 1016.2(-1.8/3h) 20 -- -- --
15:00 21.4 21.4 0.7 SSE 7.4 -- 16.7 25 1016.7(-1.9/3h) 20 -- -- --
14:00 20.9 20.9 1.1 SSE 9.3 -- 14.8 27 1017.5(-2.1/3h) 17 -- -- --
13:00 19.8 19.8 0.6 SE 9.3 -- 16.7 28 1018.2(-2.1/3h) 20 -- -- --
12:00 19.5 19.5 0.7 SE 7.4 -- 16.7 28 1018.8(-1.8/3h) 17 -- -- --
11:00 18.3 18.3 1.7 SE 11.1 -- 16.7 33 1019.7(-1.2/3h) 20 -- -- --
10:00 16.0 15.9 0.3 SE 9.3 -- 14.8 34 1020.6(-0.6/3h) 17 -- -- --
09:00 14.2 14 1.3 ESE 7.4 -- 14.8 41 1021(-0.2/3h) 20 -- -- --
08:00 11.6 10.7 1.0 SE 9.3 -- 14.8 48 1021.2(0.2/3h) 20 -- -- --
07:00 8.6 8 1.0 ESE 5.6 -- 7.4 59 1021.7(0.1/3h) 20 -- -- --
06:00 6.5 6.5 -0.1 NNO 1.9 -- 5.6 63 1021.6(-0.2/3h) 20 -- -- --
05:00 5.2 5.2 -0.7 NNO 1.9 -- 3.7 66 1021.3(-0.7/3h) 20 -- -- --
04:00 5.5 5.5 -0.8 NNO 1.9 -- 3.7 64 1021.7(-0.7/3h) 20 -- -- --
03:00 6.3 6.3 -1.0 NNO 1.9 -- 3.7 59 1021.8(-1.0/3h) 20 -- -- --
02:00 6.7 6.7 -1.0 NNO 1.9 -- 3.7 58 1022.1(-0.8/3h) 20 -- -- --
01:00 7.6 7.6 -0.7 NNO 3.7 -- 3.7 56 1022.2(-0.6/3h) 20 -- -- --
00:00 8.3 8.3 -0.7 NNO 1.9 -- 7.4 53 1022.7(0.0/3h) 20 -- -- --

1 Coordinated Universal Time. Actuellement il est 10:00 locale et 08:00 UTC.

2 Le vent souffle depuis la direction indiquée vers la direction oposée.

3 Les rafales max. sont disponible 40 min après l'heure du relevé.

4 Pour les stations d'altitude (plus de 600m) le géopotentiel du niveau le plus proche de la pression obligatoire est indiqué.

5 Les stations disposant d'un diffuseur peuvent indiquer "trace". Cela signifie que des précipitations ont touchés le sol mais que la quantité est inférieure à 0.1 mm.

Récapitulatif de la journée
Température [°C] Vent [km/h] Ensoleillement4 [h] Precipitations totale5 [mm] Pression [Hpa]
Min1 Max.2 Moy.3 Max. Min Max.
4.6 21.5 0 16.7 0 h 0 min 0 1016.1 1022.7

1 Température minimale relevée entre 18:00 UTC la veille et 18:00 UTC le jour donné.

2 Température maximale relevée entre 06:00 UTC le jour donné et 06:00 UTC le lendemain.

3 Vent moyen de la journée basé sur les relevés horaires.

4 Ensoleillement en heures relevé entre 06:00 UTC la veille et 06:00 UTC le jour donné.

5 Précipitations totales tombées entre 06:00 UTC la jour donné et 06:00 UTC le lendemain.

Graphiques horaires